Terminal Aerodrome Forecast
Issued by NWS

Home | Current Version | Previous Version | Text Only | Print | Product List | Glossary On
Versions: 1 2 3 4 5 6 7 8 9 10 11 12 13 14 15 16 17
000
FTUS43 KLSX 260937 AAA
TAFSUS
TAF AMD
KSUS 260937Z 2610/2706 VRB03KT 6SM BR BKN035
      TEMPO 2610/2612 1SM BR BKN015
     FM261400 00000KT P6SM BKN035
     FM262100 06006KT P6SM BKN040=

USA.gov is the U.S. government's official web portal to all federal, state and local government web resources and services.